sensor_id;sensor_type;location;lat;lon;timestamp;P1;durP1;ratioP1;P2;durP2;ratioP2
15669;SDS011;18524;45.190;5.732;2023-01-25T00:01:44;40.07;;;26.60;;
15669;SDS011;18524;45.190;5.732;2023-01-25T00:06:35;40.67;;;26.47;;
15669;SDS011;18524;45.190;5.732;2023-01-25T00:11:25;41.33;;;26.33;;
15669;SDS011;18524;45.190;5.732;2023-01-25T00:16:16;41.20;;;27.00;;
15669;SDS011;18524;45.190;5.732;2023-01-25T00:21:23;43.40;;;25.77;;
15669;SDS011;18524;45.190;5.732;2023-01-25T00:26:15;40.17;;;26.10;;
15669;SDS011;18524;45.190;5.732;2023-01-25T00:31:06;39.80;;;26.33;;
15669;SDS011;18524;45.190;5.732;2023-01-25T00:35:58;38.33;;;25.47;;
15669;SDS011;18524;45.190;5.732;2023-01-25T00:40:50;41.47;;;27.00;;
15669;SDS011;18524;45.190;5.732;2023-01-25T00:45:40;41.20;;;26.33;;
15669;SDS011;18524;45.190;5.732;2023-01-25T00:50:31;39.33;;;26.87;;
15669;SDS011;18524;45.190;5.732;2023-01-25T00:55:21;39.80;;;25.67;;
15669;SDS011;18524;45.190;5.732;2023-01-25T01:00:11;39.03;;;25.17;;
15669;SDS011;18524;45.190;5.732;2023-01-25T01:05:02;42.83;;;25.97;;
15669;SDS011;18524;45.190;5.732;2023-01-25T01:09:53;41.87;;;27.47;;
15669;SDS011;18524;45.190;5.732;2023-01-25T01:14:44;42.73;;;27.50;;
15669;SDS011;18524;45.190;5.732;2023-01-25T01:19:34;44.77;;;28.40;;
15669;SDS011;18524;45.190;5.732;2023-01-25T01:24:25;42.27;;;27.33;;
15669;SDS011;18524;45.190;5.732;2023-01-25T01:29:15;47.30;;;28.23;;
15669;SDS011;18524;45.190;5.732;2023-01-25T01:34:06;44.83;;;27.50;;
15669;SDS011;18524;45.190;5.732;2023-01-25T01:38:57;42.90;;;27.03;;
15669;SDS011;18524;45.190;5.732;2023-01-25T01:43:49;43.90;;;27.67;;
15669;SDS011;18524;45.190;5.732;2023-01-25T01:49:16;42.77;;;26.90;;
15669;SDS011;18524;45.190;5.732;2023-01-25T01:54:11;44.47;;;28.73;;
15669;SDS011;18524;45.190;5.732;2023-01-25T01:59:07;43.00;;;27.60;;
15669;SDS011;18524;45.190;5.732;2023-01-25T02:03:58;44.70;;;28.33;;
15669;SDS011;18524;45.190;5.732;2023-01-25T02:08:51;41.83;;;26.50;;
15669;SDS011;18524;45.190;5.732;2023-01-25T02:13:42;41.83;;;27.00;;
15669;SDS011;18524;45.190;5.732;2023-01-25T02:18:33;42.03;;;27.57;;
15669;SDS011;18524;45.190;5.732;2023-01-25T02:28:25;40.07;;;26.73;;
15669;SDS011;18524;45.190;5.732;2023-01-25T02:33:31;40.67;;;26.57;;
15669;SDS011;18524;45.190;5.732;2023-01-25T02:38:21;40.30;;;24.70;;
15669;SDS011;18524;45.190;5.732;2023-01-25T02:43:12;40.73;;;25.57;;
15669;SDS011;18524;45.190;5.732;2023-01-25T02:48:03;37.70;;;25.20;;
15669;SDS011;18524;45.190;5.732;2023-01-25T02:52:54;40.20;;;26.03;;
15669;SDS011;18524;45.190;5.732;2023-01-25T02:57:44;41.03;;;26.13;;
15669;SDS011;18524;45.190;5.732;2023-01-25T03:02:35;41.63;;;27.13;;
15669;SDS011;18524;45.190;5.732;2023-01-25T03:07:25;39.70;;;25.23;;
15669;SDS011;18524;45.190;5.732;2023-01-25T03:12:16;40.97;;;26.53;;
15669;SDS011;18524;45.190;5.732;2023-01-25T03:17:06;38.47;;;24.77;;
15669;SDS011;18524;45.190;5.732;2023-01-25T03:21:56;39.73;;;26.03;;
15669;SDS011;18524;45.190;5.732;2023-01-25T03:26:48;39.93;;;25.20;;
15669;SDS011;18524;45.190;5.732;2023-01-25T03:31:56;36.83;;;24.67;;
15669;SDS011;18524;45.190;5.732;2023-01-25T03:36:47;38.70;;;25.27;;
15669;SDS011;18524;45.190;5.732;2023-01-25T03:41:37;41.87;;;26.83;;
15669;SDS011;18524;45.190;5.732;2023-01-25T03:46:27;40.83;;;27.13;;
15669;SDS011;18524;45.190;5.732;2023-01-25T03:51:18;38.17;;;24.13;;
15669;SDS011;18524;45.190;5.732;2023-01-25T03:56:09;41.13;;;25.53;;
15669;SDS011;18524;45.190;5.732;2023-01-25T04:01:01;43.80;;;26.90;;
15669;SDS011;18524;45.190;5.732;2023-01-25T04:05:52;42.07;;;26.13;;
15669;SDS011;18524;45.190;5.732;2023-01-25T04:10:44;38.80;;;25.83;;
15669;SDS011;18524;45.190;5.732;2023-01-25T04:15:41;42.13;;;26.13;;
15669;SDS011;18524;45.190;5.732;2023-01-25T04:20:31;41.77;;;26.03;;
15669;SDS011;18524;45.190;5.732;2023-01-25T04:25:24;41.37;;;25.97;;
15669;SDS011;18524;45.190;5.732;2023-01-25T04:30:15;42.73;;;26.00;;
15669;SDS011;18524;45.190;5.732;2023-01-25T04:35:05;40.53;;;26.93;;
15669;SDS011;18524;45.190;5.732;2023-01-25T04:39:56;42.70;;;26.33;;
15669;SDS011;18524;45.190;5.732;2023-01-25T04:44:46;43.80;;;27.67;;
15669;SDS011;18524;45.190;5.732;2023-01-25T04:49:37;43.23;;;25.90;;
15669;SDS011;18524;45.190;5.732;2023-01-25T04:54:27;40.00;;;25.43;;
15669;SDS011;18524;45.190;5.732;2023-01-25T04:59:17;41.40;;;26.30;;
15669;SDS011;18524;45.190;5.732;2023-01-25T05:04:08;40.97;;;25.60;;
15669;SDS011;18524;45.190;5.732;2023-01-25T05:08:58;40.83;;;25.90;;
15669;SDS011;18524;45.190;5.732;2023-01-25T05:13:48;45.10;;;30.40;;
15669;SDS011;18524;45.190;5.732;2023-01-25T05:18:40;46.07;;;30.30;;
15669;SDS011;18524;45.190;5.732;2023-01-25T05:23:31;45.53;;;28.87;;
15669;SDS011;18524;45.190;5.732;2023-01-25T05:28:21;45.83;;;29.03;;
15669;SDS011;18524;45.190;5.732;2023-01-25T05:33:12;42.23;;;27.77;;
15669;SDS011;18524;45.190;5.732;2023-01-25T05:38:02;41.33;;;26.63;;
15669;SDS011;18524;45.190;5.732;2023-01-25T05:42:53;42.63;;;27.10;;
15669;SDS011;18524;45.190;5.732;2023-01-25T05:47:51;47.30;;;30.03;;
15669;SDS011;18524;45.190;5.732;2023-01-25T05:52:45;49.23;;;32.03;;
15669;SDS011;18524;45.190;5.732;2023-01-25T05:57:36;52.23;;;34.20;;
15669;SDS011;18524;45.190;5.732;2023-01-25T06:02:26;46.63;;;30.17;;
15669;SDS011;18524;45.190;5.732;2023-01-25T06:07:16;43.73;;;27.10;;
15669;SDS011;18524;45.190;5.732;2023-01-25T06:12:07;42.20;;;27.47;;
15669;SDS011;18524;45.190;5.732;2023-01-25T06:16:59;42.17;;;26.17;;
15669;SDS011;18524;45.190;5.732;2023-01-25T06:21:50;41.17;;;27.27;;
15669;SDS011;18524;45.190;5.732;2023-01-25T06:26:40;43.27;;;26.87;;
15669;SDS011;18524;45.190;5.732;2023-01-25T06:31:30;42.93;;;27.30;;
15669;SDS011;18524;45.190;5.732;2023-01-25T06:36:21;43.43;;;27.60;;
15669;SDS011;18524;45.190;5.732;2023-01-25T06:41:11;43.63;;;27.40;;
15669;SDS011;18524;45.190;5.732;2023-01-25T06:46:03;50.60;;;30.17;;
15669;SDS011;18524;45.190;5.732;2023-01-25T06:50:55;46.23;;;29.63;;
15669;SDS011;18524;45.190;5.732;2023-01-25T06:55:48;43.83;;;28.17;;
15669;SDS011;18524;45.190;5.732;2023-01-25T07:00:45;49.97;;;30.47;;
15669;SDS011;18524;45.190;5.732;2023-01-25T07:05:36;51.43;;;33.07;;
15669;SDS011;18524;45.190;5.732;2023-01-25T07:10:27;49.43;;;32.83;;
15669;SDS011;18524;45.190;5.732;2023-01-25T07:15:17;49.83;;;31.73;;
15669;SDS011;18524;45.190;5.732;2023-01-25T07:20:07;43.50;;;28.10;;
15669;SDS011;18524;45.190;5.732;2023-01-25T07:24:58;42.30;;;27.47;;
15669;SDS011;18524;45.190;5.732;2023-01-25T07:29:51;42.10;;;26.37;;
15669;SDS011;18524;45.190;5.732;2023-01-25T07:34:41;42.50;;;26.33;;
15669;SDS011;18524;45.190;5.732;2023-01-25T07:39:31;45.10;;;27.33;;
15669;SDS011;18524;45.190;5.732;2023-01-25T07:44:22;42.60;;;26.70;;
15669;SDS011;18524;45.190;5.732;2023-01-25T07:49:12;43.47;;;27.17;;
15669;SDS011;18524;45.190;5.732;2023-01-25T07:54:03;44.50;;;26.60;;
15669;SDS011;18524;45.190;5.732;2023-01-25T07:58:54;42.13;;;26.47;;
15669;SDS011;18524;45.190;5.732;2023-01-25T08:03:46;42.97;;;26.57;;
15669;SDS011;18524;45.190;5.732;2023-01-25T08:08:41;42.40;;;27.23;;
15669;SDS011;18524;45.190;5.732;2023-01-25T08:13:33;47.67;;;28.10;;
15669;SDS011;18524;45.190;5.732;2023-01-25T08:18:24;43.73;;;27.00;;
15669;SDS011;18524;45.190;5.732;2023-01-25T08:23:14;45.13;;;27.10;;
15669;SDS011;18524;45.190;5.732;2023-01-25T08:28:05;47.30;;;28.67;;
15669;SDS011;18524;45.190;5.732;2023-01-25T08:32:55;48.10;;;28.77;;
15669;SDS011;18524;45.190;5.732;2023-01-25T08:37:46;47.00;;;28.30;;
15669;SDS011;18524;45.190;5.732;2023-01-25T08:42:36;46.33;;;28.47;;
15669;SDS011;18524;45.190;5.732;2023-01-25T08:47:26;47.77;;;27.40;;
15669;SDS011;18524;45.190;5.732;2023-01-25T08:52:17;44.50;;;27.67;;
15669;SDS011;18524;45.190;5.732;2023-01-25T08:57:07;42.17;;;27.10;;
15669;SDS011;18524;45.190;5.732;2023-01-25T09:01:58;42.10;;;27.30;;
15669;SDS011;18524;45.190;5.732;2023-01-25T09:06:48;48.43;;;28.67;;
15669;SDS011;18524;45.190;5.732;2023-01-25T09:11:38;44.03;;;27.20;;
15669;SDS011;18524;45.190;5.732;2023-01-25T09:16:29;45.87;;;27.80;;
15669;SDS011;18524;45.190;5.732;2023-01-25T09:21:20;46.37;;;29.30;;
15669;SDS011;18524;45.190;5.732;2023-01-25T09:26:10;51.07;;;28.20;;
15669;SDS011;18524;45.190;5.732;2023-01-25T09:31:02;44.07;;;28.33;;
15669;SDS011;18524;45.190;5.732;2023-01-25T09:35:54;44.77;;;28.80;;
15669;SDS011;18524;45.190;5.732;2023-01-25T09:40:47;52.40;;;29.30;;
15669;SDS011;18524;45.190;5.732;2023-01-25T09:46:06;44.37;;;28.50;;
15669;SDS011;18524;45.190;5.732;2023-01-25T09:51:33;46.13;;;27.27;;
15669;SDS011;18524;45.190;5.732;2023-01-25T09:56:32;44.47;;;28.73;;
15669;SDS011;18524;45.190;5.732;2023-01-25T10:01:33;43.13;;;27.57;;
15669;SDS011;18524;45.190;5.732;2023-01-25T10:06:38;40.20;;;27.90;;
15669;SDS011;18524;45.190;5.732;2023-01-25T10:11:30;46.43;;;26.97;;
15669;SDS011;18524;45.190;5.732;2023-01-25T10:16:27;42.33;;;26.43;;
15669;SDS011;18524;45.190;5.732;2023-01-25T10:26:38;45.23;;;27.80;;
15669;SDS011;18524;45.190;5.732;2023-01-25T10:31:42;43.73;;;27.10;;
15669;SDS011;18524;45.190;5.732;2023-01-25T10:36:36;44.77;;;27.80;;
15669;SDS011;18524;45.190;5.732;2023-01-25T10:41:37;45.43;;;27.07;;
15669;SDS011;18524;45.190;5.732;2023-01-25T10:46:30;42.40;;;27.23;;
15669;SDS011;18524;45.190;5.732;2023-01-25T10:51:27;49.90;;;26.97;;
15669;SDS011;18524;45.190;5.732;2023-01-25T10:56:23;40.70;;;25.77;;
15669;SDS011;18524;45.190;5.732;2023-01-25T11:01:28;43.53;;;26.33;;
15669;SDS011;18524;45.190;5.732;2023-01-25T11:06:28;39.00;;;25.87;;
15669;SDS011;18524;45.190;5.732;2023-01-25T11:11:25;41.47;;;26.00;;
15669;SDS011;18524;45.190;5.732;2023-01-25T11:21:21;39.40;;;26.03;;
15669;SDS011;18524;45.190;5.732;2023-01-25T11:31:13;38.67;;;24.17;;
15669;SDS011;18524;45.190;5.732;2023-01-25T11:41:26;33.97;;;23.17;;
15669;SDS011;18524;45.190;5.732;2023-01-25T11:47:00;34.40;;;23.37;;
15669;SDS011;18524;45.190;5.732;2023-01-25T11:57:18;32.37;;;21.87;;
15669;SDS011;18524;45.190;5.732;2023-01-25T12:32:36;31.93;;;20.70;;
15669;SDS011;18524;45.190;5.732;2023-01-25T12:37:31;36.37;;;22.63;;
15669;SDS011;18524;45.190;5.732;2023-01-25T12:42:49;39.27;;;23.70;;
15669;SDS011;18524;45.190;5.732;2023-01-25T12:52:53;33.67;;;22.93;;
15669;SDS011;18524;45.190;5.732;2023-01-25T13:02:51;32.90;;;22.20;;
15669;SDS011;18524;45.190;5.732;2023-01-25T13:07:49;31.37;;;22.57;;
15669;SDS011;18524;45.190;5.732;2023-01-25T13:12:52;32.77;;;22.83;;
15669;SDS011;18524;45.190;5.732;2023-01-25T13:17:44;33.13;;;22.40;;
15669;SDS011;18524;45.190;5.732;2023-01-25T13:27:34;32.87;;;21.63;;
15669;SDS011;18524;45.190;5.732;2023-01-25T13:37:23;35.23;;;21.87;;
15669;SDS011;18524;45.190;5.732;2023-01-25T13:42:25;34.70;;;22.97;;
15669;SDS011;18524;45.190;5.732;2023-01-25T13:47:19;34.90;;;24.63;;
15669;SDS011;18524;45.190;5.732;2023-01-25T13:52:16;30.40;;;21.33;;
15669;SDS011;18524;45.190;5.732;2023-01-25T13:57:30;33.80;;;23.73;;
15669;SDS011;18524;45.190;5.732;2023-01-25T14:02:23;35.50;;;22.33;;
15669;SDS011;18524;45.190;5.732;2023-01-25T14:07:18;31.67;;;21.83;;
15669;SDS011;18524;45.190;5.732;2023-01-25T14:12:11;31.70;;;21.87;;
15669;SDS011;18524;45.190;5.732;2023-01-25T14:17:21;33.70;;;23.50;;
15669;SDS011;18524;45.190;5.732;2023-01-25T14:27:12;32.97;;;21.97;;
15669;SDS011;18524;45.190;5.732;2023-01-25T14:32:03;34.83;;;22.80;;
15669;SDS011;18524;45.190;5.732;2023-01-25T14:37:04;34.40;;;21.17;;
15669;SDS011;18524;45.190;5.732;2023-01-25T14:42:03;31.23;;;21.03;;
15669;SDS011;18524;45.190;5.732;2023-01-25T14:52:19;33.23;;;23.20;;
15669;SDS011;18524;45.190;5.732;2023-01-25T15:02:43;35.27;;;23.17;;
15669;SDS011;18524;45.190;5.732;2023-01-25T15:07:44;33.67;;;22.00;;
15669;SDS011;18524;45.190;5.732;2023-01-25T15:12:37;31.97;;;21.63;;
15669;SDS011;18524;45.190;5.732;2023-01-25T15:17:37;35.57;;;23.33;;
15669;SDS011;18524;45.190;5.732;2023-01-25T15:22:37;34.47;;;24.17;;
15669;SDS011;18524;45.190;5.732;2023-01-25T15:27:27;34.73;;;22.90;;
15669;SDS011;18524;45.190;5.732;2023-01-25T15:32:18;32.07;;;22.13;;
15669;SDS011;18524;45.190;5.732;2023-01-25T15:37:10;33.27;;;22.90;;
15669;SDS011;18524;45.190;5.732;2023-01-25T15:42:00;33.57;;;22.97;;
15669;SDS011;18524;45.190;5.732;2023-01-25T15:46:50;32.80;;;22.40;;
15669;SDS011;18524;45.190;5.732;2023-01-25T15:51:41;32.57;;;21.73;;
15669;SDS011;18524;45.190;5.732;2023-01-25T15:56:32;33.03;;;21.73;;
15669;SDS011;18524;45.190;5.732;2023-01-25T16:01:27;34.50;;;22.23;;
15669;SDS011;18524;45.190;5.732;2023-01-25T16:06:35;34.07;;;22.83;;
15669;SDS011;18524;45.190;5.732;2023-01-25T16:11:38;32.37;;;21.73;;
15669;SDS011;18524;45.190;5.732;2023-01-25T16:16:29;33.33;;;22.13;;
15669;SDS011;18524;45.190;5.732;2023-01-25T16:21:19;33.20;;;22.60;;
15669;SDS011;18524;45.190;5.732;2023-01-25T16:26:19;33.67;;;22.20;;
15669;SDS011;18524;45.190;5.732;2023-01-25T16:31:16;34.43;;;23.73;;
15669;SDS011;18524;45.190;5.732;2023-01-25T16:36:14;36.00;;;24.17;;
15669;SDS011;18524;45.190;5.732;2023-01-25T16:41:05;33.83;;;22.20;;
15669;SDS011;18524;45.190;5.732;2023-01-25T16:45:58;32.03;;;22.70;;
15669;SDS011;18524;45.190;5.732;2023-01-25T16:50:49;32.90;;;22.73;;
15669;SDS011;18524;45.190;5.732;2023-01-25T16:55:40;35.33;;;23.23;;
15669;SDS011;18524;45.190;5.732;2023-01-25T17:00:31;33.83;;;22.73;;
15669;SDS011;18524;45.190;5.732;2023-01-25T17:05:21;32.83;;;22.60;;
15669;SDS011;18524;45.190;5.732;2023-01-25T17:10:11;39.17;;;26.10;;
15669;SDS011;18524;45.190;5.732;2023-01-25T17:15:02;32.00;;;21.87;;
15669;SDS011;18524;45.190;5.732;2023-01-25T17:19:53;30.47;;;21.77;;
15669;SDS011;18524;45.190;5.732;2023-01-25T17:24:43;31.50;;;20.53;;
15669;SDS011;18524;45.190;5.732;2023-01-25T17:29:33;30.20;;;20.30;;
15669;SDS011;18524;45.190;5.732;2023-01-25T17:34:24;30.67;;;20.83;;
15669;SDS011;18524;45.190;5.732;2023-01-25T17:39:15;32.53;;;22.03;;
15669;SDS011;18524;45.190;5.732;2023-01-25T17:44:06;33.27;;;21.23;;
15669;SDS011;18524;45.190;5.732;2023-01-25T17:48:56;37.03;;;22.37;;
15669;SDS011;18524;45.190;5.732;2023-01-25T17:53:48;30.10;;;19.93;;
15669;SDS011;18524;45.190;5.732;2023-01-25T17:58:39;32.70;;;21.63;;
15669;SDS011;18524;45.190;5.732;2023-01-25T18:03:30;31.57;;;21.10;;
15669;SDS011;18524;45.190;5.732;2023-01-25T18:08:20;33.37;;;21.63;;
15669;SDS011;18524;45.190;5.732;2023-01-25T18:13:11;33.03;;;21.73;;
15669;SDS011;18524;45.190;5.732;2023-01-25T18:18:01;34.10;;;23.03;;
15669;SDS011;18524;45.190;5.732;2023-01-25T18:22:51;38.23;;;24.17;;
15669;SDS011;18524;45.190;5.732;2023-01-25T18:27:43;34.90;;;21.90;;
15669;SDS011;18524;45.190;5.732;2023-01-25T18:32:33;34.07;;;22.13;;
15669;SDS011;18524;45.190;5.732;2023-01-25T18:37:23;32.93;;;22.37;;
15669;SDS011;18524;45.190;5.732;2023-01-25T18:42:18;33.27;;;23.47;;
15669;SDS011;18524;45.190;5.732;2023-01-25T18:47:10;32.27;;;22.43;;
15669;SDS011;18524;45.190;5.732;2023-01-25T18:52:02;34.23;;;23.00;;
15669;SDS011;18524;45.190;5.732;2023-01-25T18:56:53;34.57;;;22.40;;
15669;SDS011;18524;45.190;5.732;2023-01-25T19:01:44;34.03;;;22.97;;
15669;SDS011;18524;45.190;5.732;2023-01-25T19:06:34;36.33;;;25.00;;
15669;SDS011;18524;45.190;5.732;2023-01-25T19:11:25;57.77;;;34.63;;
15669;SDS011;18524;45.190;5.732;2023-01-25T19:16:16;57.60;;;34.50;;
15669;SDS011;18524;45.190;5.732;2023-01-25T19:21:09;42.40;;;27.83;;
15669;SDS011;18524;45.190;5.732;2023-01-25T19:26:00;37.77;;;24.07;;
15669;SDS011;18524;45.190;5.732;2023-01-25T19:30:50;37.30;;;24.50;;
15669;SDS011;18524;45.190;5.732;2023-01-25T19:35:41;38.97;;;25.10;;
15669;SDS011;18524;45.190;5.732;2023-01-25T19:40:31;35.30;;;23.93;;
15669;SDS011;18524;45.190;5.732;2023-01-25T19:45:22;42.00;;;26.67;;
15669;SDS011;18524;45.190;5.732;2023-01-25T19:50:12;42.33;;;28.37;;
15669;SDS011;18524;45.190;5.732;2023-01-25T19:55:03;34.87;;;23.67;;
15669;SDS011;18524;45.190;5.732;2023-01-25T19:59:54;35.50;;;23.43;;
15669;SDS011;18524;45.190;5.732;2023-01-25T20:04:44;37.97;;;24.93;;
15669;SDS011;18524;45.190;5.732;2023-01-25T20:09:34;38.07;;;24.80;;
15669;SDS011;18524;45.190;5.732;2023-01-25T20:14:25;40.80;;;26.43;;
15669;SDS011;18524;45.190;5.732;2023-01-25T20:19:15;43.03;;;27.67;;
15669;SDS011;18524;45.190;5.732;2023-01-25T20:24:06;40.17;;;25.63;;
15669;SDS011;18524;45.190;5.732;2023-01-25T20:28:58;37.17;;;24.37;;
15669;SDS011;18524;45.190;5.732;2023-01-25T20:33:50;41.00;;;27.73;;
15669;SDS011;18524;45.190;5.732;2023-01-25T20:38:42;40.53;;;25.57;;
15669;SDS011;18524;45.190;5.732;2023-01-25T20:43:32;40.17;;;26.27;;
15669;SDS011;18524;45.190;5.732;2023-01-25T20:48:23;39.90;;;25.97;;
15669;SDS011;18524;45.190;5.732;2023-01-25T20:53:13;40.20;;;26.77;;
15669;SDS011;18524;45.190;5.732;2023-01-25T20:58:04;43.90;;;27.03;;
15669;SDS011;18524;45.190;5.732;2023-01-25T21:02:54;40.23;;;26.87;;
15669;SDS011;18524;45.190;5.732;2023-01-25T21:07:45;41.87;;;27.53;;
15669;SDS011;18524;45.190;5.732;2023-01-25T21:12:35;41.93;;;27.57;;
15669;SDS011;18524;45.190;5.732;2023-01-25T21:17:26;43.60;;;27.23;;
15669;SDS011;18524;45.190;5.732;2023-01-25T21:22:16;42.03;;;29.13;;
15669;SDS011;18524;45.190;5.732;2023-01-25T21:27:07;42.20;;;27.37;;
15669;SDS011;18524;45.190;5.732;2023-01-25T21:31:57;43.27;;;27.43;;
15669;SDS011;18524;45.190;5.732;2023-01-25T21:36:48;42.50;;;27.13;;
15669;SDS011;18524;45.190;5.732;2023-01-25T21:41:39;36.07;;;25.80;;
15669;SDS011;18524;45.190;5.732;2023-01-25T21:46:29;34.37;;;24.93;;
15669;SDS011;18524;45.190;5.732;2023-01-25T21:51:20;38.37;;;25.80;;
15669;SDS011;18524;45.190;5.732;2023-01-25T21:56:25;36.17;;;25.03;;
15669;SDS011;18524;45.190;5.732;2023-01-25T22:01:16;46.40;;;28.63;;
15669;SDS011;18524;45.190;5.732;2023-01-25T22:06:09;39.17;;;26.23;;
15669;SDS011;18524;45.190;5.732;2023-01-25T22:10:59;39.93;;;26.23;;
15669;SDS011;18524;45.190;5.732;2023-01-25T22:16:02;38.10;;;25.73;;
15669;SDS011;18524;45.190;5.732;2023-01-25T22:20:59;40.90;;;28.07;;
15669;SDS011;18524;45.190;5.732;2023-01-25T22:25:58;42.97;;;29.93;;
15669;SDS011;18524;45.190;5.732;2023-01-25T22:30:50;43.13;;;28.03;;
15669;SDS011;18524;45.190;5.732;2023-01-25T22:35:40;42.70;;;26.67;;
15669;SDS011;18524;45.190;5.732;2023-01-25T22:40:31;47.07;;;27.10;;
15669;SDS011;18524;45.190;5.732;2023-01-25T22:45:21;43.23;;;27.77;;
15669;SDS011;18524;45.190;5.732;2023-01-25T22:50:11;43.03;;;28.17;;
15669;SDS011;18524;45.190;5.732;2023-01-25T22:55:02;45.47;;;29.03;;
15669;SDS011;18524;45.190;5.732;2023-01-25T22:59:52;44.77;;;30.43;;
15669;SDS011;18524;45.190;5.732;2023-01-25T23:04:43;41.60;;;28.27;;
15669;SDS011;18524;45.190;5.732;2023-01-25T23:09:33;44.53;;;28.93;;
15669;SDS011;18524;45.190;5.732;2023-01-25T23:14:23;48.17;;;30.40;;
15669;SDS011;18524;45.190;5.732;2023-01-25T23:19:32;43.97;;;28.33;;
15669;SDS011;18524;45.190;5.732;2023-01-25T23:24:22;45.47;;;27.83;;
15669;SDS011;18524;45.190;5.732;2023-01-25T23:29:15;44.20;;;28.67;;
15669;SDS011;18524;45.190;5.732;2023-01-25T23:34:05;42.30;;;28.20;;
15669;SDS011;18524;45.190;5.732;2023-01-25T23:38:56;40.80;;;27.57;;
15669;SDS011;18524;45.190;5.732;2023-01-25T23:55:20;42.47;;;28.70;;
